sensor_id;sensor_type;location;lat;lon;timestamp;temperature;humidity
21275;DHT22;36472;52.170;20.884;2023-03-25T00:02:00;28.90;47.10
21275;DHT22;36472;52.170;20.884;2023-03-25T00:04:31;28.80;46.80
21275;DHT22;36472;52.170;20.884;2023-03-25T00:07:01;28.80;46.80
21275;DHT22;36472;52.170;20.884;2023-03-25T00:09:32;28.80;46.80
21275;DHT22;36472;52.170;20.884;2023-03-25T00:12:01;28.80;46.60
21275;DHT22;36472;52.170;20.884;2023-03-25T00:14:30;28.80;46.60
21275;DHT22;36472;52.170;20.884;2023-03-25T00:17:00;28.70;46.70
21275;DHT22;36472;52.170;20.884;2023-03-25T00:19:29;28.80;46.70
21275;DHT22;36472;52.170;20.884;2023-03-25T00:21:58;28.80;46.60
21275;DHT22;36472;52.170;20.884;2023-03-25T00:24:27;28.70;46.50
21275;DHT22;36472;52.170;20.884;2023-03-25T00:26:58;28.80;46.50
21275;DHT22;36472;52.170;20.884;2023-03-25T00:29:27;28.80;46.60
21275;DHT22;36472;52.170;20.884;2023-03-25T00:31:56;28.70;46.20
21275;DHT22;36472;52.170;20.884;2023-03-25T00:34:25;28.70;46.50
21275;DHT22;36472;52.170;20.884;2023-03-25T00:36:54;28.70;46.50
21275;DHT22;36472;52.170;20.884;2023-03-25T00:39:23;28.70;46.40
21275;DHT22;36472;52.170;20.884;2023-03-25T00:41:53;28.70;46.50
21275;DHT22;36472;52.170;20.884;2023-03-25T00:44:24;28.70;46.50
21275;DHT22;36472;52.170;20.884;2023-03-25T00:46:53;28.70;46.40
21275;DHT22;36472;52.170;20.884;2023-03-25T00:49:22;28.70;46.40
21275;DHT22;36472;52.170;20.884;2023-03-25T00:51:51;28.60;46.30
21275;DHT22;36472;52.170;20.884;2023-03-25T00:54:20;28.70;46.50
21275;DHT22;36472;52.170;20.884;2023-03-25T00:56:51;28.60;46.50
21275;DHT22;36472;52.170;20.884;2023-03-25T00:59:20;28.70;46.30
21275;DHT22;36472;52.170;20.884;2023-03-25T01:01:51;28.70;46.40
21275;DHT22;36472;52.170;20.884;2023-03-25T01:04:22;28.60;46.30
21275;DHT22;36472;52.170;20.884;2023-03-25T01:06:51;28.60;46.30
21275;DHT22;36472;52.170;20.884;2023-03-25T01:09:21;28.60;46.40
21275;DHT22;36472;52.170;20.884;2023-03-25T01:11:50;28.60;46.20
21275;DHT22;36472;52.170;20.884;2023-03-25T01:14:20;28.50;46.20
21275;DHT22;36472;52.170;20.884;2023-03-25T01:16:57;28.60;46.10
21275;DHT22;36472;52.170;20.884;2023-03-25T01:19:29;28.60;46.20
21275;DHT22;36472;52.170;20.884;2023-03-25T01:21:58;28.50;46.20
21275;DHT22;36472;52.170;20.884;2023-03-25T01:24:27;28.50;46.10
21275;DHT22;36472;52.170;20.884;2023-03-25T01:26:56;28.50;46.10
21275;DHT22;36472;52.170;20.884;2023-03-25T01:29:27;28.50;46.10
21275;DHT22;36472;52.170;20.884;2023-03-25T01:31:58;28.50;46.10
21275;DHT22;36472;52.170;20.884;2023-03-25T01:34:27;28.50;45.90
21275;DHT22;36472;52.170;20.884;2023-03-25T01:36:56;28.50;46.10
21275;DHT22;36472;52.170;20.884;2023-03-25T01:39:25;28.40;46.00
21275;DHT22;36472;52.170;20.884;2023-03-25T01:46:26;28.40;46.10
21275;DHT22;36472;52.170;20.884;2023-03-25T01:48:58;28.30;45.90
21275;DHT22;36472;52.170;20.884;2023-03-25T01:51:34;28.30;45.90
21275;DHT22;36472;52.170;20.884;2023-03-25T01:54:05;28.30;45.80
21275;DHT22;36472;52.170;20.884;2023-03-25T01:56:38;28.30;45.80
21275;DHT22;36472;52.170;20.884;2023-03-25T01:59:09;28.40;45.80
21275;DHT22;36472;52.170;20.884;2023-03-25T02:01:38;28.30;45.60
21275;DHT22;36472;52.170;20.884;2023-03-25T02:04:09;28.20;45.70
21275;DHT22;36472;52.170;20.884;2023-03-25T02:06:42;28.20;45.80
21275;DHT22;36472;52.170;20.884;2023-03-25T02:09:16;28.20;45.80
21275;DHT22;36472;52.170;20.884;2023-03-25T02:11:48;28.20;45.80
21275;DHT22;36472;52.170;20.884;2023-03-25T02:14:19;28.10;45.80
21275;DHT22;36472;52.170;20.884;2023-03-25T02:16:59;28.10;45.80
21275;DHT22;36472;52.170;20.884;2023-03-25T02:23:29;28.10;45.90
21275;DHT22;36472;52.170;20.884;2023-03-25T02:26:26;28.00;45.70
21275;DHT22;36472;52.170;20.884;2023-03-25T02:29:26;28.00;45.70
21275;DHT22;36472;52.170;20.884;2023-03-25T02:32:17;28.00;45.70
21275;DHT22;36472;52.170;20.884;2023-03-25T02:35:27;28.00;45.60
21275;DHT22;36472;52.170;20.884;2023-03-25T02:38:18;27.90;46.30
21275;DHT22;36472;52.170;20.884;2023-03-25T02:41:00;27.90;45.60
21275;DHT22;36472;52.170;20.884;2023-03-25T02:43:39;27.90;45.50
21275;DHT22;36472;52.170;20.884;2023-03-25T02:46:16;27.90;45.60
21275;DHT22;36472;52.170;20.884;2023-03-25T02:48:50;27.90;45.70
21275;DHT22;36472;52.170;20.884;2023-03-25T02:51:27;27.80;45.50
21275;DHT22;36472;52.170;20.884;2023-03-25T02:54:02;27.80;45.60
21275;DHT22;36472;52.170;20.884;2023-03-25T02:56:37;27.80;45.60
21275;DHT22;36472;52.170;20.884;2023-03-25T02:59:10;27.80;45.80
21275;DHT22;36472;52.170;20.884;2023-03-25T03:01:41;27.80;45.60
21275;DHT22;36472;52.170;20.884;2023-03-25T03:04:11;27.80;45.70
21275;DHT22;36472;52.170;20.884;2023-03-25T03:06:42;27.80;45.60
21275;DHT22;36472;52.170;20.884;2023-03-25T03:09:27;27.80;45.60
21275;DHT22;36472;52.170;20.884;2023-03-25T03:12:16;27.70;45.60
21275;DHT22;36472;52.170;20.884;2023-03-25T03:15:06;27.70;45.50
21275;DHT22;36472;52.170;20.884;2023-03-25T03:18:07;27.70;45.40
21275;DHT22;36472;52.170;20.884;2023-03-25T03:20:46;27.70;45.30
21275;DHT22;36472;52.170;20.884;2023-03-25T03:23:26;27.60;45.30
21275;DHT22;36472;52.170;20.884;2023-03-25T03:26:05;27.60;45.40
21275;DHT22;36472;52.170;20.884;2023-03-25T03:28:41;27.60;45.50
21275;DHT22;36472;52.170;20.884;2023-03-25T03:31:18;27.60;45.60
21275;DHT22;36472;52.170;20.884;2023-03-25T03:34:17;27.50;45.50
21275;DHT22;36472;52.170;20.884;2023-03-25T03:36:52;27.50;45.20
21275;DHT22;36472;52.170;20.884;2023-03-25T03:39:27;27.50;45.30
21275;DHT22;36472;52.170;20.884;2023-03-25T03:42:05;27.50;45.50
21275;DHT22;36472;52.170;20.884;2023-03-25T03:44:46;27.40;45.30
21275;DHT22;36472;52.170;20.884;2023-03-25T03:47:22;27.40;45.30
21275;DHT22;36472;52.170;20.884;2023-03-25T03:49:58;27.40;45.20
21275;DHT22;36472;52.170;20.884;2023-03-25T03:52:36;27.30;45.20
21275;DHT22;36472;52.170;20.884;2023-03-25T03:55:15;27.30;45.30
21275;DHT22;36472;52.170;20.884;2023-03-25T03:57:54;27.30;45.90
21275;DHT22;36472;52.170;20.884;2023-03-25T04:00:30;27.20;45.20
21275;DHT22;36472;52.170;20.884;2023-03-25T04:03:08;27.20;45.50
21275;DHT22;36472;52.170;20.884;2023-03-25T04:05:45;27.20;45.30
21275;DHT22;36472;52.170;20.884;2023-03-25T04:08:27;27.20;45.30
21275;DHT22;36472;52.170;20.884;2023-03-25T04:11:03;27.20;45.20
21275;DHT22;36472;52.170;20.884;2023-03-25T04:13:40;27.20;45.50
21275;DHT22;36472;52.170;20.884;2023-03-25T04:16:12;27.10;45.80
21275;DHT22;36472;52.170;20.884;2023-03-25T04:18:41;27.10;45.50
21275;DHT22;36472;52.170;20.884;2023-03-25T04:21:14;27.10;45.30
21275;DHT22;36472;52.170;20.884;2023-03-25T04:23:43;27.10;45.50
21275;DHT22;36472;52.170;20.884;2023-03-25T04:26:12;27.10;45.40
21275;DHT22;36472;52.170;20.884;2023-03-25T04:28:43;27.10;45.50
21275;DHT22;36472;52.170;20.884;2023-03-25T04:31:14;27.00;45.50
21275;DHT22;36472;52.170;20.884;2023-03-25T04:33:44;27.00;45.50
21275;DHT22;36472;52.170;20.884;2023-03-25T04:36:15;27.00;45.50
21275;DHT22;36472;52.170;20.884;2023-03-25T04:38:44;27.00;45.50
21275;DHT22;36472;52.170;20.884;2023-03-25T04:41:13;27.00;45.60
21275;DHT22;36472;52.170;20.884;2023-03-25T04:43:43;27.00;45.60
21275;DHT22;36472;52.170;20.884;2023-03-25T04:46:14;27.00;45.40
21275;DHT22;36472;52.170;20.884;2023-03-25T04:48:44;27.00;45.70
21275;DHT22;36472;52.170;20.884;2023-03-25T04:51:14;27.10;45.70
21275;DHT22;36472;52.170;20.884;2023-03-25T04:53:43;27.10;45.60
21275;DHT22;36472;52.170;20.884;2023-03-25T04:56:16;27.10;45.60
21275;DHT22;36472;52.170;20.884;2023-03-25T04:58:47;27.00;45.60
21275;DHT22;36472;52.170;20.884;2023-03-25T05:01:21;27.10;45.70
21275;DHT22;36472;52.170;20.884;2023-03-25T05:03:58;27.10;45.80
21275;DHT22;36472;52.170;20.884;2023-03-25T05:06:33;27.10;45.80
21275;DHT22;36472;52.170;20.884;2023-03-25T05:09:05;27.10;45.80
21275;DHT22;36472;52.170;20.884;2023-03-25T05:11:38;27.10;45.60
21275;DHT22;36472;52.170;20.884;2023-03-25T05:14:10;27.10;45.80
21275;DHT22;36472;52.170;20.884;2023-03-25T05:16:41;27.10;45.80
21275;DHT22;36472;52.170;20.884;2023-03-25T05:19:11;27.10;45.80
21275;DHT22;36472;52.170;20.884;2023-03-25T05:21:41;27.20;45.70
21275;DHT22;36472;52.170;20.884;2023-03-25T05:24:11;27.20;45.80
21275;DHT22;36472;52.170;20.884;2023-03-25T05:26:41;27.20;45.90
21275;DHT22;36472;52.170;20.884;2023-03-25T05:29:13;27.20;46.00
21275;DHT22;36472;52.170;20.884;2023-03-25T05:31:44;27.20;45.90
21275;DHT22;36472;52.170;20.884;2023-03-25T05:34:14;27.20;45.80
21275;DHT22;36472;52.170;20.884;2023-03-25T05:36:44;27.20;45.90
21275;DHT22;36472;52.170;20.884;2023-03-25T05:39:13;27.20;46.10
21275;DHT22;36472;52.170;20.884;2023-03-25T05:41:43;27.30;46.10
21275;DHT22;36472;52.170;20.884;2023-03-25T05:44:13;27.30;46.00
21275;DHT22;36472;52.170;20.884;2023-03-25T05:46:45;27.30;46.10
21275;DHT22;36472;52.170;20.884;2023-03-25T05:49:14;27.30;46.00
21275;DHT22;36472;52.170;20.884;2023-03-25T05:51:43;27.40;46.20
21275;DHT22;36472;52.170;20.884;2023-03-25T05:58:44;27.40;46.10
21275;DHT22;36472;52.170;20.884;2023-03-25T06:01:15;27.40;46.30
21275;DHT22;36472;52.170;20.884;2023-03-25T06:04:00;27.40;46.30
21275;DHT22;36472;52.170;20.884;2023-03-25T06:06:31;27.50;46.30
21275;DHT22;36472;52.170;20.884;2023-03-25T06:09:02;27.50;46.40
21275;DHT22;36472;52.170;20.884;2023-03-25T06:11:32;27.50;46.30
21275;DHT22;36472;52.170;20.884;2023-03-25T06:14:05;27.60;46.40
21275;DHT22;36472;52.170;20.884;2023-03-25T06:16:36;27.60;46.50
21275;DHT22;36472;52.170;20.884;2023-03-25T06:19:06;27.60;46.40
21275;DHT22;36472;52.170;20.884;2023-03-25T06:21:36;27.60;46.40
21275;DHT22;36472;52.170;20.884;2023-03-25T06:24:06;27.70;46.30
21275;DHT22;36472;52.170;20.884;2023-03-25T06:26:35;27.70;46.30
21275;DHT22;36472;52.170;20.884;2023-03-25T06:29:04;27.80;46.30
21275;DHT22;36472;52.170;20.884;2023-03-25T06:31:36;27.80;46.30
21275;DHT22;36472;52.170;20.884;2023-03-25T06:34:05;27.90;46.20
21275;DHT22;36472;52.170;20.884;2023-03-25T06:36:34;27.90;46.10
21275;DHT22;36472;52.170;20.884;2023-03-25T06:39:03;28.00;47.20
21275;DHT22;36472;52.170;20.884;2023-03-25T06:41:32;28.00;46.30
21275;DHT22;36472;52.170;20.884;2023-03-25T06:44:13;28.00;46.30
21275;DHT22;36472;52.170;20.884;2023-03-25T06:47:10;28.10;46.20
21275;DHT22;36472;52.170;20.884;2023-03-25T06:49:43;28.20;46.10
21275;DHT22;36472;52.170;20.884;2023-03-25T06:52:13;28.20;46.10
21275;DHT22;36472;52.170;20.884;2023-03-25T06:54:42;28.30;46.40
21275;DHT22;36472;52.170;20.884;2023-03-25T06:57:11;28.30;46.10
21275;DHT22;36472;52.170;20.884;2023-03-25T06:59:40;28.40;45.90
21275;DHT22;36472;52.170;20.884;2023-03-25T07:02:11;28.50;45.70
21275;DHT22;36472;52.170;20.884;2023-03-25T07:04:41;28.60;45.70
21275;DHT22;36472;52.170;20.884;2023-03-25T07:07:10;28.60;45.40
21275;DHT22;36472;52.170;20.884;2023-03-25T07:09:39;28.60;45.50
21275;DHT22;36472;52.170;20.884;2023-03-25T07:12:08;28.60;45.50
21275;DHT22;36472;52.170;20.884;2023-03-25T07:14:37;28.70;45.60
21275;DHT22;36472;52.170;20.884;2023-03-25T07:17:06;28.60;45.50
21275;DHT22;36472;52.170;20.884;2023-03-25T07:19:36;28.60;45.70
21275;DHT22;36472;52.170;20.884;2023-03-25T07:22:05;28.60;45.80
21275;DHT22;36472;52.170;20.884;2023-03-25T07:24:34;28.60;45.60
21275;DHT22;36472;52.170;20.884;2023-03-25T07:27:03;28.60;45.90
21275;DHT22;36472;52.170;20.884;2023-03-25T07:29:34;28.80;45.90
21275;DHT22;36472;52.170;20.884;2023-03-25T07:32:03;28.90;45.10
21275;DHT22;36472;52.170;20.884;2023-03-25T07:34:33;28.90;44.90
21275;DHT22;36472;52.170;20.884;2023-03-25T07:37:03;28.90;45.00
21275;DHT22;36472;52.170;20.884;2023-03-25T07:39:34;29.00;45.40
21275;DHT22;36472;52.170;20.884;2023-03-25T07:42:04;29.00;45.10
21275;DHT22;36472;52.170;20.884;2023-03-25T07:44:56;28.90;45.70
21275;DHT22;36472;52.170;20.884;2023-03-25T07:47:25;29.00;45.10
21275;DHT22;36472;52.170;20.884;2023-03-25T07:49:55;29.00;45.00
21275;DHT22;36472;52.170;20.884;2023-03-25T07:52:25;29.10;45.20
21275;DHT22;36472;52.170;20.884;2023-03-25T07:54:54;29.10;44.90
21275;DHT22;36472;52.170;20.884;2023-03-25T07:57:23;29.20;44.80
21275;DHT22;36472;52.170;20.884;2023-03-25T07:59:52;29.20;44.80
21275;DHT22;36472;52.170;20.884;2023-03-25T08:02:20;29.30;44.40
21275;DHT22;36472;52.170;20.884;2023-03-25T08:04:50;29.40;44.70
21275;DHT22;36472;52.170;20.884;2023-03-25T08:07:20;29.40;44.30
21275;DHT22;36472;52.170;20.884;2023-03-25T08:09:51;29.40;44.40
21275;DHT22;36472;52.170;20.884;2023-03-25T08:16:53;29.60;44.40
21275;DHT22;36472;52.170;20.884;2023-03-25T08:19:22;29.70;43.30
21275;DHT22;36472;52.170;20.884;2023-03-25T08:21:51;29.80;43.00
21275;DHT22;36472;52.170;20.884;2023-03-25T08:24:20;29.90;43.50
21275;DHT22;36472;52.170;20.884;2023-03-25T08:26:52;30.00;42.70
21275;DHT22;36472;52.170;20.884;2023-03-25T08:29:21;30.20;42.60
21275;DHT22;36472;52.170;20.884;2023-03-25T08:31:51;30.20;41.60
21275;DHT22;36472;52.170;20.884;2023-03-25T08:34:20;30.30;41.30
21275;DHT22;36472;52.170;20.884;2023-03-25T08:51:03;31.00;41.10
21275;DHT22;36472;52.170;20.884;2023-03-25T08:53:32;31.10;40.50
21275;DHT22;36472;52.170;20.884;2023-03-25T08:56:02;31.20;40.90
21275;DHT22;36472;52.170;20.884;2023-03-25T08:58:30;31.30;40.00
21275;DHT22;36472;52.170;20.884;2023-03-25T09:01:00;31.30;40.60
21275;DHT22;36472;52.170;20.884;2023-03-25T09:03:30;31.40;40.20
21275;DHT22;36472;52.170;20.884;2023-03-25T09:06:04;31.60;40.70
21275;DHT22;36472;52.170;20.884;2023-03-25T09:08:35;31.70;39.80
21275;DHT22;36472;52.170;20.884;2023-03-25T09:11:05;31.80;39.50
21275;DHT22;36472;52.170;20.884;2023-03-25T09:13:34;32.00;40.70
21275;DHT22;36472;52.170;20.884;2023-03-25T09:16:03;32.10;40.30
21275;DHT22;36472;52.170;20.884;2023-03-25T09:18:33;32.30;39.70
21275;DHT22;36472;52.170;20.884;2023-03-25T09:21:04;32.40;38.40
21275;DHT22;36472;52.170;20.884;2023-03-25T09:23:34;32.50;38.60
21275;DHT22;36472;52.170;20.884;2023-03-25T09:26:04;32.50;38.50
21275;DHT22;36472;52.170;20.884;2023-03-25T09:28:33;32.50;37.60
21275;DHT22;36472;52.170;20.884;2023-03-25T09:31:02;32.50;37.60
21275;DHT22;36472;52.170;20.884;2023-03-25T09:33:32;32.40;37.20
21275;DHT22;36472;52.170;20.884;2023-03-25T09:36:01;32.40;38.10
21275;DHT22;36472;52.170;20.884;2023-03-25T09:48:02;32.20;38.50
21275;DHT22;36472;52.170;20.884;2023-03-25T09:55:14;32.00;38.10
21275;DHT22;36472;52.170;20.884;2023-03-25T09:57:50;31.90;38.50
21275;DHT22;36472;52.170;20.884;2023-03-25T10:00:24;31.80;38.90
21275;DHT22;36472;52.170;20.884;2023-03-25T10:03:05;31.80;38.70
21275;DHT22;36472;52.170;20.884;2023-03-25T10:08:51;31.80;38.60
21275;DHT22;36472;52.170;20.884;2023-03-25T10:11:35;31.70;39.00
21275;DHT22;36472;52.170;20.884;2023-03-25T10:14:14;31.70;38.90
21275;DHT22;36472;52.170;20.884;2023-03-25T10:16:58;31.70;39.10
21275;DHT22;36472;52.170;20.884;2023-03-25T10:19:51;31.80;39.50
21275;DHT22;36472;52.170;20.884;2023-03-25T10:22:32;31.90;39.30
21275;DHT22;36472;52.170;20.884;2023-03-25T10:25:13;32.10;38.90
21275;DHT22;36472;52.170;20.884;2023-03-25T10:27:49;32.30;38.50
21275;DHT22;36472;52.170;20.884;2023-03-25T10:30:22;32.60;38.50
21275;DHT22;36472;52.170;20.884;2023-03-25T10:32:55;32.80;37.50
21275;DHT22;36472;52.170;20.884;2023-03-25T10:35:28;33.00;35.90
21275;DHT22;36472;52.170;20.884;2023-03-25T10:38:02;33.10;36.70
21275;DHT22;36472;52.170;20.884;2023-03-25T10:40:42;33.10;36.60
21275;DHT22;36472;52.170;20.884;2023-03-25T10:43:22;33.30;36.20
21275;DHT22;36472;52.170;20.884;2023-03-25T10:45:57;33.40;35.90
21275;DHT22;36472;52.170;20.884;2023-03-25T10:48:31;33.60;35.90
21275;DHT22;36472;52.170;20.884;2023-03-25T10:51:05;33.70;37.10
21275;DHT22;36472;52.170;20.884;2023-03-25T10:53:39;33.90;35.90
21275;DHT22;36472;52.170;20.884;2023-03-25T10:56:12;34.00;34.50
21275;DHT22;36472;52.170;20.884;2023-03-25T10:58:46;33.90;34.40
21275;DHT22;36472;52.170;20.884;2023-03-25T11:01:19;33.90;34.50
21275;DHT22;36472;52.170;20.884;2023-03-25T11:03:56;33.70;34.40
21275;DHT22;36472;52.170;20.884;2023-03-25T11:06:32;33.50;34.60
21275;DHT22;36472;52.170;20.884;2023-03-25T11:09:21;33.30;34.80
21275;DHT22;36472;52.170;20.884;2023-03-25T11:11:52;33.20;35.30
21275;DHT22;36472;52.170;20.884;2023-03-25T11:14:24;33.00;35.60
21275;DHT22;36472;52.170;20.884;2023-03-25T11:16:56;32.90;36.00
21275;DHT22;36472;52.170;20.884;2023-03-25T11:19:38;33.00;36.60
21275;DHT22;36472;52.170;20.884;2023-03-25T11:22:16;32.90;36.10
21275;DHT22;36472;52.170;20.884;2023-03-25T11:24:48;33.00;36.70
21275;DHT22;36472;52.170;20.884;2023-03-25T11:27:22;33.20;36.20
21275;DHT22;36472;52.170;20.884;2023-03-25T11:29:58;33.40;37.10
21275;DHT22;36472;52.170;20.884;2023-03-25T11:32:32;33.40;36.50
21275;DHT22;36472;52.170;20.884;2023-03-25T11:35:08;33.40;35.90
21275;DHT22;36472;52.170;20.884;2023-03-25T11:37:46;33.50;35.60
21275;DHT22;36472;52.170;20.884;2023-03-25T11:44:54;33.60;35.40
21275;DHT22;36472;52.170;20.884;2023-03-25T11:47:30;33.50;35.70
21275;DHT22;36472;52.170;20.884;2023-03-25T11:50:00;33.40;36.00
21275;DHT22;36472;52.170;20.884;2023-03-25T11:52:36;33.30;35.50
21275;DHT22;36472;52.170;20.884;2023-03-25T11:55:16;33.20;36.40
21275;DHT22;36472;52.170;20.884;2023-03-25T11:57:49;33.10;36.30
21275;DHT22;36472;52.170;20.884;2023-03-25T12:00:30;33.00;36.70
21275;DHT22;36472;52.170;20.884;2023-03-25T12:03:05;32.90;37.20
21275;DHT22;36472;52.170;20.884;2023-03-25T12:05:59;32.80;36.90
21275;DHT22;36472;52.170;20.884;2023-03-25T12:08:41;32.60;36.80
21275;DHT22;36472;52.170;20.884;2023-03-25T12:11:15;32.60;37.50
21275;DHT22;36472;52.170;20.884;2023-03-25T12:14:18;32.50;36.30
21275;DHT22;36472;52.170;20.884;2023-03-25T12:17:04;32.40;36.50
21275;DHT22;36472;52.170;20.884;2023-03-25T12:19:50;32.40;37.20
21275;DHT22;36472;52.170;20.884;2023-03-25T12:22:39;32.40;37.20
21275;DHT22;36472;52.170;20.884;2023-03-25T12:25:24;32.50;36.60
21275;DHT22;36472;52.170;20.884;2023-03-25T12:28:21;32.50;37.40
21275;DHT22;36472;52.170;20.884;2023-03-25T12:31:06;32.50;37.60
21275;DHT22;36472;52.170;20.884;2023-03-25T12:33:53;32.50;37.80
21275;DHT22;36472;52.170;20.884;2023-03-25T12:36:38;32.50;37.40
21275;DHT22;36472;52.170;20.884;2023-03-25T12:39:29;32.50;38.30
21275;DHT22;36472;52.170;20.884;2023-03-25T12:42:21;32.50;37.70
21275;DHT22;36472;52.170;20.884;2023-03-25T12:49:26;32.50;38.20
21275;DHT22;36472;52.170;20.884;2023-03-25T12:52:08;32.50;37.30
21275;DHT22;36472;52.170;20.884;2023-03-25T12:54:55;32.50;37.20
21275;DHT22;36472;52.170;20.884;2023-03-25T12:57:46;32.40;37.60
21275;DHT22;36472;52.170;20.884;2023-03-25T13:04:42;32.30;36.70
21275;DHT22;36472;52.170;20.884;2023-03-25T13:07:25;32.20;37.90
21275;DHT22;36472;52.170;20.884;2023-03-25T13:10:05;32.00;39.80
21275;DHT22;36472;52.170;20.884;2023-03-25T13:12:42;31.80;40.30
21275;DHT22;36472;52.170;20.884;2023-03-25T13:15:19;31.60;41.00
21275;DHT22;36472;52.170;20.884;2023-03-25T13:17:56;31.50;40.90
21275;DHT22;36472;52.170;20.884;2023-03-25T13:20:35;31.40;40.50
21275;DHT22;36472;52.170;20.884;2023-03-25T13:23:13;31.30;40.60
21275;DHT22;36472;52.170;20.884;2023-03-25T13:25:50;31.20;40.30
21275;DHT22;36472;52.170;20.884;2023-03-25T13:28:27;31.10;40.20
21275;DHT22;36472;52.170;20.884;2023-03-25T13:35:43;31.00;40.80
21275;DHT22;36472;52.170;20.884;2023-03-25T13:38:19;31.00;40.50
21275;DHT22;36472;52.170;20.884;2023-03-25T13:41:06;30.90;40.70
21275;DHT22;36472;52.170;20.884;2023-03-25T13:43:46;30.90;41.10
21275;DHT22;36472;52.170;20.884;2023-03-25T13:46:25;30.90;40.40
21275;DHT22;36472;52.170;20.884;2023-03-25T13:49:03;30.90;41.50
21275;DHT22;36472;52.170;20.884;2023-03-25T13:51:41;30.90;40.80
21275;DHT22;36472;52.170;20.884;2023-03-25T13:58:56;30.90;41.70
21275;DHT22;36472;52.170;20.884;2023-03-25T14:01:57;30.90;40.40
21275;DHT22;36472;52.170;20.884;2023-03-25T14:05:04;31.00;41.00
21275;DHT22;36472;52.170;20.884;2023-03-25T14:08:08;31.00;41.00
21275;DHT22;36472;52.170;20.884;2023-03-25T14:10:53;31.00;40.90
21275;DHT22;36472;52.170;20.884;2023-03-25T14:18:02;31.20;41.00
21275;DHT22;36472;52.170;20.884;2023-03-25T14:20:34;31.30;40.90
21275;DHT22;36472;52.170;20.884;2023-03-25T14:23:14;31.40;40.80
21275;DHT22;36472;52.170;20.884;2023-03-25T14:25:48;31.40;40.20
21275;DHT22;36472;52.170;20.884;2023-03-25T14:28:31;31.40;39.60
21275;DHT22;36472;52.170;20.884;2023-03-25T14:31:15;31.50;40.10
21275;DHT22;36472;52.170;20.884;2023-03-25T14:34:21;31.50;40.10
21275;DHT22;36472;52.170;20.884;2023-03-25T14:37:22;31.50;39.30
21275;DHT22;36472;52.170;20.884;2023-03-25T14:39:56;31.50;39.80
21275;DHT22;36472;52.170;20.884;2023-03-25T14:42:38;31.40;39.10
21275;DHT22;36472;52.170;20.884;2023-03-25T14:48:41;31.40;38.60
21275;DHT22;36472;52.170;20.884;2023-03-25T14:51:21;31.30;38.10
21275;DHT22;36472;52.170;20.884;2023-03-25T14:54:16;31.20;36.90
21275;DHT22;36472;52.170;20.884;2023-03-25T14:57:00;31.00;35.80
21275;DHT22;36472;52.170;20.884;2023-03-25T14:59:36;30.90;35.80
21275;DHT22;36472;52.170;20.884;2023-03-25T15:02:14;30.70;36.00
21275;DHT22;36472;52.170;20.884;2023-03-25T15:04:45;30.40;36.60
21275;DHT22;36472;52.170;20.884;2023-03-25T15:07:37;30.20;37.30
21275;DHT22;36472;52.170;20.884;2023-03-25T15:10:21;29.90;38.20
21275;DHT22;36472;52.170;20.884;2023-03-25T15:13:00;29.70;39.10
21275;DHT22;36472;52.170;20.884;2023-03-25T15:15:52;29.50;40.10
21275;DHT22;36472;52.170;20.884;2023-03-25T15:19:01;29.30;40.60
21275;DHT22;36472;52.170;20.884;2023-03-25T15:22:04;29.20;42.00
21275;DHT22;36472;52.170;20.884;2023-03-25T15:32:46;28.80;43.80
21275;DHT22;36472;52.170;20.884;2023-03-25T15:35:40;28.70;44.00
21275;DHT22;36472;52.170;20.884;2023-03-25T15:38:36;28.60;44.80
21275;DHT22;36472;52.170;20.884;2023-03-25T15:41:40;28.60;45.10
21275;DHT22;36472;52.170;20.884;2023-03-25T15:49:11;28.50;45.00
21275;DHT22;36472;52.170;20.884;2023-03-25T15:56:11;28.20;46.40
21275;DHT22;36472;52.170;20.884;2023-03-25T15:58:48;28.20;47.10
21275;DHT22;36472;52.170;20.884;2023-03-25T16:01:26;28.10;46.30
21275;DHT22;36472;52.170;20.884;2023-03-25T16:03:59;28.10;46.90
21275;DHT22;36472;52.170;20.884;2023-03-25T16:11:22;28.10;46.70
21275;DHT22;36472;52.170;20.884;2023-03-25T16:14:06;28.10;46.50
21275;DHT22;36472;52.170;20.884;2023-03-25T16:21:12;28.10;46.80
21275;DHT22;36472;52.170;20.884;2023-03-25T16:23:42;28.10;46.70
21275;DHT22;36472;52.170;20.884;2023-03-25T16:26:12;28.10;46.60
21275;DHT22;36472;52.170;20.884;2023-03-25T16:28:42;28.10;46.60
21275;DHT22;36472;52.170;20.884;2023-03-25T16:31:28;28.00;46.40
21275;DHT22;36472;52.170;20.884;2023-03-25T16:34:01;28.00;46.30
21275;DHT22;36472;52.170;20.884;2023-03-25T16:36:36;28.00;46.20
21275;DHT22;36472;52.170;20.884;2023-03-25T16:39:10;28.00;46.50
21275;DHT22;36472;52.170;20.884;2023-03-25T16:41:45;28.00;46.20
21275;DHT22;36472;52.170;20.884;2023-03-25T16:44:17;27.90;45.90
21275;DHT22;36472;52.170;20.884;2023-03-25T16:51:22;27.90;46.10
21275;DHT22;36472;52.170;20.884;2023-03-25T16:53:57;27.90;46.00
21275;DHT22;36472;52.170;20.884;2023-03-25T17:01:00;27.80;45.80
21275;DHT22;36472;52.170;20.884;2023-03-25T17:03:48;27.70;45.70
21275;DHT22;36472;52.170;20.884;2023-03-25T17:06:21;27.70;45.90
21275;DHT22;36472;52.170;20.884;2023-03-25T17:13:31;27.70;45.60
21275;DHT22;36472;52.170;20.884;2023-03-25T17:16:07;27.70;45.50
21275;DHT22;36472;52.170;20.884;2023-03-25T17:18:37;27.60;45.80
21275;DHT22;36472;52.170;20.884;2023-03-25T17:21:09;27.60;45.70
21275;DHT22;36472;52.170;20.884;2023-03-25T17:23:43;27.50;45.50
21275;DHT22;36472;52.170;20.884;2023-03-25T17:26:17;27.60;45.70
21275;DHT22;36472;52.170;20.884;2023-03-25T17:28:58;27.50;46.00
21275;DHT22;36472;52.170;20.884;2023-03-25T17:31:31;27.50;46.00
21275;DHT22;36472;52.170;20.884;2023-03-25T17:34:05;27.40;45.60
21275;DHT22;36472;52.170;20.884;2023-03-25T17:36:37;27.40;45.80
21275;DHT22;36472;52.170;20.884;2023-03-25T17:39:16;27.40;45.70
21275;DHT22;36472;52.170;20.884;2023-03-25T17:41:49;27.40;45.90
21275;DHT22;36472;52.170;20.884;2023-03-25T17:44:30;27.30;45.90
21275;DHT22;36472;52.170;20.884;2023-03-25T17:47:02;27.40;46.10
21275;DHT22;36472;52.170;20.884;2023-03-25T17:49:32;27.30;46.00
21275;DHT22;36472;52.170;20.884;2023-03-25T17:52:01;27.30;46.10
21275;DHT22;36472;52.170;20.884;2023-03-25T17:54:31;27.30;46.10
21275;DHT22;36472;52.170;20.884;2023-03-25T17:56:59;27.30;46.30
21275;DHT22;36472;52.170;20.884;2023-03-25T17:59:30;27.30;46.60
21275;DHT22;36472;52.170;20.884;2023-03-25T18:01:59;27.30;46.60
21275;DHT22;36472;52.170;20.884;2023-03-25T18:04:28;27.30;46.50
21275;DHT22;36472;52.170;20.884;2023-03-25T18:06:57;27.30;46.60